Time;durP1;ratioP1;P1;durP2;ratioP2;P2;SDS_P1;SDS_P2;PMS_P1;PMS_P2;Temp;Humidity;BMP_temperature;BMP_pressure;BME280_temperature;BME280_humidity;BME280_pressure;Samples;Min_cycle;Max_cycle;Signal;HPM_P1;HPM_P2
2022/11/21 00:01:00;;;;;;;48.43;32.30;;;;;;;;;;4995471;28;20185;-77
2022/11/21 00:03:26;;;;;;;47.40;31.80;;;;;;;;;;4996440;28;20194;-77
2022/11/21 00:05:52;;;;;;;45.97;31.47;;;;;;;;;;4995274;28;20217;-77
2022/11/21 00:08:19;;;;;;;47.10;31.53;;;;;;;;;;4979230;28;20196;-77
2022/11/21 00:10:45;;;;;;;44.33;30.17;;;;;;;;;;4978635;28;20186;-75
2022/11/21 00:13:16;;;;;;;47.70;31.70;;;;;;;;;;4995122;28;20194;-75
2022/11/21 00:15:42;;;;;;;47.90;30.57;;;;;;;;;;4995549;28;20221;-75
2022/11/21 00:18:10;;;;;;;44.63;30.50;;;;;;;;;;4995440;28;20258;-75
2022/11/21 00:20:36;;;;;;;46.33;31.17;;;;;;;;;;4996511;28;20178;-75
2022/11/21 00:23:03;;;;;;;44.60;30.17;;;;;;;;;;4996306;28;20265;-76
2022/11/21 00:25:29;;;;;;;44.50;29.70;;;;;;;;;;4980970;28;20269;-77
2022/11/21 00:27:55;;;;;;;44.53;31.20;;;;;;;;;;4987939;28;20178;-77
2022/11/21 00:30:21;;;;;;;42.07;29.20;;;;;;;;;;4979050;28;20194;-77
2022/11/21 00:32:47;;;;;;;45.33;30.13;;;;;;;;;;4976986;28;20194;-77
2022/11/21 00:35:13;;;;;;;43.27;30.73;;;;;;;;;;4996349;28;20186;-77
2022/11/21 00:37:39;;;;;;;45.20;30.70;;;;;;;;;;4995702;28;20185;-77
2022/11/21 00:40:05;;;;;;;45.97;29.73;;;;;;;;;;4994858;28;20198;-81
2022/11/21 00:42:31;;;;;;;44.00;29.47;;;;;;;;;;4994537;28;20233;-82
2022/11/21 00:44:57;;;;;;;43.47;29.30;;;;;;;;;;4979088;28;20304;-82
2022/11/21 00:47:23;;;;;;;42.47;29.63;;;;;;;;;;4991607;28;20182;-82
2022/11/21 00:49:49;;;;;;;43.00;30.07;;;;;;;;;;4981797;28;20245;-82
2022/11/21 00:52:16;;;;;;;43.97;30.37;;;;;;;;;;4994618;28;20281;-83
2022/11/21 00:54:42;;;;;;;43.20;28.97;;;;;;;;;;4994705;28;20186;-75
2022/11/21 00:57:08;;;;;;;42.57;30.17;;;;;;;;;;4995518;28;20229;-75
2022/11/21 00:59:34;;;;;;;41.97;28.47;;;;;;;;;;4978157;28;20190;-75
2022/11/21 01:02:00;;;;;;;44.67;30.07;;;;;;;;;;4994932;28;20194;-75
2022/11/21 01:04:29;;;;;;;43.47;28.47;;;;;;;;;;4980370;28;20217;-75
2022/11/21 01:06:55;;;;;;;45.37;30.50;;;;;;;;;;4994800;28;20182;-75
2022/11/21 01:09:21;;;;;;;41.97;29.53;;;;;;;;;;4994151;28;20181;-75
2022/11/21 01:11:47;;;;;;;44.20;30.07;;;;;;;;;;4978086;28;20296;-77
2022/11/21 01:14:13;;;;;;;42.77;29.70;;;;;;;;;;4994803;28;20194;-77
2022/11/21 01:16:39;;;;;;;42.13;29.73;;;;;;;;;;4994493;28;20256;-77
2022/11/21 01:19:05;;;;;;;43.53;30.50;;;;;;;;;;4994287;28;20225;-77
2022/11/21 01:21:31;;;;;;;46.47;30.83;;;;;;;;;;4977042;28;20186;-77
2022/11/21 01:24:01;;;;;;;45.50;30.83;;;;;;;;;;4993959;28;20256;-77
2022/11/21 01:26:28;;;;;;;45.67;30.57;;;;;;;;;;4993609;28;20201;-77
2022/11/21 01:28:54;;;;;;;43.60;30.00;;;;;;;;;;4995011;28;20244;-77
2022/11/21 01:31:25;;;;;;;45.90;30.57;;;;;;;;;;4993712;28;20186;-77
2022/11/21 01:33:51;;;;;;;43.43;30.70;;;;;;;;;;4994743;28;20194;-77
2022/11/21 01:36:18;;;;;;;47.73;31.43;;;;;;;;;;4994477;28;20220;-77
2022/11/21 01:38:45;;;;;;;46.60;30.23;;;;;;;;;;4989865;28;20197;-77
2022/11/21 01:41:12;;;;;;;46.73;31.17;;;;;;;;;;4994542;28;20184;-77
2022/11/21 01:43:39;;;;;;;46.43;31.43;;;;;;;;;;4994523;28;20193;-77
2022/11/21 01:46:05;;;;;;;46.23;30.83;;;;;;;;;;4994811;28;20217;-82
2022/11/21 01:48:34;;;;;;;44.27;29.80;;;;;;;;;;4994794;28;20181;-82
2022/11/21 01:51:04;;;;;;;45.90;29.83;;;;;;;;;;4994096;28;20186;-83
2022/11/21 01:53:30;;;;;;;46.87;31.43;;;;;;;;;;4993968;28;20182;-82
2022/11/21 01:55:56;;;;;;;51.30;31.70;;;;;;;;;;4993778;28;20197;-82
2022/11/21 01:58:22;;;;;;;50.73;32.60;;;;;;;;;;4993660;28;20190;-83
2022/11/21 02:00:48;;;;;;;48.33;31.40;;;;;;;;;;4993834;28;20186;-81
2022/11/21 02:03:17;;;;;;;48.37;31.50;;;;;;;;;;4987409;28;20217;-75
2022/11/21 02:05:43;;;;;;;49.40;32.30;;;;;;;;;;4975350;28;20266;-75
2022/11/21 02:08:13;;;;;;;49.37;32.00;;;;;;;;;;4974428;28;20178;-75
2022/11/21 02:10:42;;;;;;;47.10;31.37;;;;;;;;;;4992071;28;20294;-75
2022/11/21 02:13:09;;;;;;;50.90;31.80;;;;;;;;;;4994271;28;20227;-82
2022/11/21 02:15:35;;;;;;;49.10;31.83;;;;;;;;;;4993756;28;20225;-83
2022/11/21 02:18:01;;;;;;;47.47;31.93;;;;;;;;;;4993689;28;20270;-78
2022/11/21 02:20:28;;;;;;;48.87;32.13;;;;;;;;;;4993306;28;20288;-77
2022/11/21 02:23:13;;;;;;;49.50;32.53;;;;;;;;;;4993553;28;20193;-77
2022/11/21 02:25:41;;;;;;;47.67;31.43;;;;;;;;;;4994322;28;20206;-77
2022/11/21 02:28:08;;;;;;;51.27;33.27;;;;;;;;;;4994628;28;20189;-77
2022/11/21 02:30:35;;;;;;;46.53;32.03;;;;;;;;;;4992959;28;20206;-77
2022/11/21 02:33:01;;;;;;;51.33;33.50;;;;;;;;;;4994148;28;20218;-77
2022/11/21 02:35:27;;;;;;;47.27;31.53;;;;;;;;;;4997940;28;20201;-75
2022/11/21 02:37:57;;;;;;;53.10;33.83;;;;;;;;;;4997223;28;20237;-75
2022/11/21 02:40:25;;;;;;;52.00;33.30;;;;;;;;;;4996886;28;20182;-75
2022/11/21 02:43:12;;;;;;;49.47;32.30;;;;;;;;;;4996643;28;20197;-75
2022/11/21 02:45:43;;;;;;;48.93;32.67;;;;;;;;;;4996915;28;20213;-82
2022/11/21 02:48:09;;;;;;;48.87;32.10;;;;;;;;;;4997188;28;20178;-82
2022/11/21 02:50:36;;;;;;;48.57;31.93;;;;;;;;;;4996298;28;20252;-82
2022/11/21 02:53:03;;;;;;;52.00;33.37;;;;;;;;;;4998173;28;20190;-77
2022/11/21 02:55:29;;;;;;;51.53;32.90;;;;;;;;;;4996959;28;20224;-77
2022/11/21 02:57:55;;;;;;;50.67;33.07;;;;;;;;;;4996419;28;20189;-77
2022/11/21 03:00:21;;;;;;;53.63;33.83;;;;;;;;;;4997666;28;20181;-77
2022/11/21 03:02:47;;;;;;;49.27;32.50;;;;;;;;;;4981007;28;20213;-77
2022/11/21 03:05:14;;;;;;;51.00;33.20;;;;;;;;;;4977202;28;20223;-77
2022/11/21 03:07:40;;;;;;;51.10;32.33;;;;;;;;;;4992585;28;20209;-77
2022/11/21 03:10:06;;;;;;;49.07;31.67;;;;;;;;;;4996590;28;20277;-83
2022/11/21 03:12:32;;;;;;;51.27;32.27;;;;;;;;;;4996229;28;20256;-83
2022/11/21 03:14:58;;;;;;;52.03;32.70;;;;;;;;;;4996843;28;20269;-77
2022/11/21 03:17:24;;;;;;;47.93;32.60;;;;;;;;;;4983186;28;20250;-77
2022/11/21 03:19:50;;;;;;;53.60;33.10;;;;;;;;;;4993831;28;20257;-77
2022/11/21 03:22:16;;;;;;;51.80;33.10;;;;;;;;;;4980870;28;20213;-77
2022/11/21 03:24:42;;;;;;;50.40;31.73;;;;;;;;;;4996296;28;20279;-77
2022/11/21 03:27:08;;;;;;;50.33;33.13;;;;;;;;;;4980332;28;20186;-77
2022/11/21 03:29:34;;;;;;;56.37;33.27;;;;;;;;;;4976803;28;20273;-77
2022/11/21 03:32:00;;;;;;;54.40;33.13;;;;;;;;;;4977552;28;20193;-77
2022/11/21 03:34:26;;;;;;;52.53;32.83;;;;;;;;;;4996244;28;20246;-77
2022/11/21 03:36:52;;;;;;;52.47;33.37;;;;;;;;;;4996083;28;20306;-77
2022/11/21 03:39:18;;;;;;;51.67;32.27;;;;;;;;;;4995974;28;20217;-77
2022/11/21 03:41:44;;;;;;;56.67;33.70;;;;;;;;;;4996044;28;20236;-77
2022/11/21 03:44:11;;;;;;;52.03;33.17;;;;;;;;;;4995112;28;20190;-77
2022/11/21 03:46:39;;;;;;;54.37;33.83;;;;;;;;;;4978950;28;20240;-77
2022/11/21 03:49:05;;;;;;;51.90;33.13;;;;;;;;;;4996293;28;20189;-77
2022/11/21 03:51:31;;;;;;;56.83;33.57;;;;;;;;;;4996018;28;20197;-77
2022/11/21 03:53:57;;;;;;;52.77;32.67;;;;;;;;;;4996810;28;20190;-77
2022/11/21 03:56:24;;;;;;;51.70;32.03;;;;;;;;;;4979352;28;20245;-77
2022/11/21 03:58:50;;;;;;;50.93;33.07;;;;;;;;;;4996631;28;20236;-75
2022/11/21 04:01:16;;;;;;;53.77;33.77;;;;;;;;;;4984833;28;20198;-75
2022/11/21 04:03:42;;;;;;;51.37;31.83;;;;;;;;;;4980545;28;20225;-75
2022/11/21 04:06:09;;;;;;;51.30;32.40;;;;;;;;;;4996643;28;20205;-75
2022/11/21 04:08:35;;;;;;;54.67;32.77;;;;;;;;;;4976082;28;20252;-75
2022/11/21 04:11:01;;;;;;;53.80;33.53;;;;;;;;;;4977494;28;20186;-75
2022/11/21 04:13:28;;;;;;;54.60;33.50;;;;;;;;;;4993264;28;20229;-75
2022/11/21 04:15:54;;;;;;;53.50;34.27;;;;;;;;;;4995872;28;20221;-77
2022/11/21 04:18:20;;;;;;;56.27;34.47;;;;;;;;;;4995394;28;20193;-77
2022/11/21 04:20:46;;;;;;;58.60;35.00;;;;;;;;;;4994837;28;20216;-77
2022/11/21 04:23:12;;;;;;;59.60;37.10;;;;;;;;;;4995433;28;20190;-77
2022/11/21 04:25:39;;;;;;;58.10;34.63;;;;;;;;;;5002512;23;20324;-75
2022/11/21 04:28:05;;;;;;;56.63;35.20;;;;;;;;;;4987995;28;20226;-75
2022/11/21 04:30:34;;;;;;;60.83;35.80;;;;;;;;;;5009724;28;20197;-75
2022/11/21 04:33:00;;;;;;;59.00;35.27;;;;;;;;;;4997632;28;20278;-77
2022/11/21 04:35:26;;;;;;;61.10;35.67;;;;;;;;;;4980262;28;20206;-77
2022/11/21 04:37:52;;;;;;;61.53;37.37;;;;;;;;;;4992050;28;20265;-77
2022/11/21 04:40:18;;;;;;;63.63;36.03;;;;;;;;;;4995995;28;20194;-77
2022/11/21 04:42:45;;;;;;;68.90;37.93;;;;;;;;;;4995445;28;20186;-78
2022/11/21 04:45:12;;;;;;;59.03;36.43;;;;;;;;;;4994960;28;20309;-78
2022/11/21 04:47:39;;;;;;;64.37;36.03;;;;;;;;;;5000731;28;20266;-78
2022/11/21 04:50:05;;;;;;;70.93;38.47;;;;;;;;;;4995574;28;20178;-77
2022/11/21 04:52:31;;;;;;;69.77;38.03;;;;;;;;;;4994277;28;20240;-77
2022/11/21 04:54:57;;;;;;;73.07;39.27;;;;;;;;;;4985130;28;20269;-77
2022/11/21 04:57:23;;;;;;;68.10;36.90;;;;;;;;;;5000276;28;20198;-77
2022/11/21 04:59:49;;;;;;;63.23;36.47;;;;;;;;;;4996408;28;20217;-77
2022/11/21 05:02:15;;;;;;;66.03;37.33;;;;;;;;;;5001861;28;20198;-77
2022/11/21 05:04:41;;;;;;;71.20;37.50;;;;;;;;;;4999378;28;20354;-75
2022/11/21 05:07:07;;;;;;;71.53;39.13;;;;;;;;;;4995106;28;20194;-76
2022/11/21 05:09:33;;;;;;;75.17;39.73;;;;;;;;;;4976870;28;20183;-76
2022/11/21 05:14:44;;;;;;;71.30;37.83;;;;;;;;;;4985135;28;20229;-76
2022/11/21 05:17:09;;;;;;;73.97;38.23;;;;;;;;;;4994068;28;20186;-76
2022/11/21 05:19:36;;;;;;;76.17;39.67;;;;;;;;;;4988143;28;20193;-75
2022/11/21 05:22:02;;;;;;;77.80;39.07;;;;;;;;;;5006337;28;20175;-83
2022/11/21 05:24:27;;;;;;;71.57;37.00;;;;;;;;;;4966331;28;20217;-83
2022/11/21 05:26:54;;;;;;;84.40;41.13;;;;;;;;;;4974496;28;20241;-83
2022/11/21 05:29:20;;;;;;;99.93;40.77;;;;;;;;;;4982942;28;20214;-83
2022/11/21 05:31:46;;;;;;;96.07;42.37;;;;;;;;;;4973593;28;20276;-83
2022/11/21 05:34:12;;;;;;;86.57;40.63;;;;;;;;;;4982636;28;20233;-83
2022/11/21 05:36:38;;;;;;;90.30;40.67;;;;;;;;;;4975723;28;20182;-83
2022/11/21 05:39:04;;;;;;;110.57;41.30;;;;;;;;;;4974952;28;20190;-83
2022/11/21 05:41:30;;;;;;;90.00;38.13;;;;;;;;;;4993762;28;20181;-83
2022/11/21 05:43:56;;;;;;;151.38;56.10;;;;;;;;;;4992960;28;20420;-83
2022/11/21 05:46:24;;;;;;;102.17;42.43;;;;;;;;;;4993562;28;20258;-83
2022/11/21 05:48:50;;;;;;;105.20;38.90;;;;;;;;;;4994901;28;20175;-83
2022/11/21 05:51:17;;;;;;;100.13;39.27;;;;;;;;;;5000824;28;20177;-83
2022/11/21 05:53:44;;;;;;;106.63;38.67;;;;;;;;;;5013439;28;20188;-82
2022/11/21 05:56:11;;;;;;;151.00;41.67;;;;;;;;;;5006936;28;20178;-83
2022/11/21 05:58:38;;;;;;;164.00;42.80;;;;;;;;;;4993776;28;20193;-83
2022/11/21 06:01:04;;;;;;;178.93;41.57;;;;;;;;;;5008261;28;20208;-77
2022/11/21 06:03:32;;;;;;;174.43;43.50;;;;;;;;;;5013533;28;20189;-77
2022/11/21 06:06:12;;;;;;;175.80;44.30;;;;;;;;;;5013298;28;20209;-77
2022/11/21 06:18:54;;;;;;;197.33;48.70;;;;;;;;;;5011713;28;20225;-78
2022/11/21 06:21:21;;;;;;;201.63;47.93;;;;;;;;;;4976615;28;20190;-78
2022/11/21 06:23:47;;;;;;;214.83;49.63;;;;;;;;;;4976983;28;20204;-78
2022/11/21 06:26:15;;;;;;;190.17;49.10;;;;;;;;;;4996430;28;20266;-78
2022/11/21 06:28:41;;;;;;;331.40;75.95;;;;;;;;;;4987272;28;20435;-78
2022/11/21 06:31:11;;;;;;;212.67;53.33;;;;;;;;;;4996547;28;20174;-84
2022/11/21 06:33:38;;;;;;;216.43;53.37;;;;;;;;;;4996400;28;20184;-84
2022/11/21 06:36:05;;;;;;;188.50;51.00;;;;;;;;;;4996798;28;20256;-84
2022/11/21 06:38:31;;;;;;;202.57;50.63;;;;;;;;;;4980637;28;20208;-84
2022/11/21 06:40:57;;;;;;;173.37;48.30;;;;;;;;;;4980202;28;20208;-84
2022/11/21 06:43:23;;;;;;;154.57;45.53;;;;;;;;;;4996522;28;20284;-84
2022/11/21 06:45:49;;;;;;;157.67;43.53;;;;;;;;;;4980216;28;20300;-84
2022/11/21 06:48:15;;;;;;;174.87;46.10;;;;;;;;;;4996535;28;20179;-84
2022/11/21 06:50:41;;;;;;;134.47;43.57;;;;;;;;;;4996143;28;20177;-84
2022/11/21 06:53:07;;;;;;;129.07;41.33;;;;;;;;;;4980492;28;20197;-84
2022/11/21 06:55:33;;;;;;;127.03;41.67;;;;;;;;;;4980298;28;20191;-84
2022/11/21 06:57:59;;;;;;;118.23;40.67;;;;;;;;;;4980268;28;20190;-84
2022/11/21 07:00:29;;;;;;;116.10;41.57;;;;;;;;;;4996187;28;20239;-84
2022/11/21 07:02:59;;;;;;;118.40;41.27;;;;;;;;;;4996028;28;20189;-84
2022/11/21 07:05:25;;;;;;;139.33;41.97;;;;;;;;;;5013463;28;20288;-79
2022/11/21 07:07:51;;;;;;;147.70;43.30;;;;;;;;;;4979982;28;20220;-78
2022/11/21 07:10:17;;;;;;;145.77;43.30;;;;;;;;;;4995889;28;20174;-78
2022/11/21 07:15:28;;;;;;;130.80;41.57;;;;;;;;;;4998978;28;20196;-78
2022/11/21 07:17:54;;;;;;;127.37;41.60;;;;;;;;;;4979975;28;20327;-78
2022/11/21 07:20:21;;;;;;;141.07;44.03;;;;;;;;;;4981312;28;20292;-78
2022/11/21 07:22:47;;;;;;;125.20;40.73;;;;;;;;;;5017185;28;20182;-78
2022/11/21 07:25:13;;;;;;;113.33;38.90;;;;;;;;;;4999670;28;20201;-78
2022/11/21 07:27:39;;;;;;;112.60;40.03;;;;;;;;;;4999743;28;20251;-78
2022/11/21 07:30:05;;;;;;;124.10;40.87;;;;;;;;;;4983157;28;20193;-78
2022/11/21 07:32:31;;;;;;;123.97;39.03;;;;;;;;;;5016755;28;20201;-78
2022/11/21 07:34:57;;;;;;;146.87;42.27;;;;;;;;;;5016550;28;20213;-78
2022/11/21 07:37:23;;;;;;;139.00;40.57;;;;;;;;;;4983321;28;20190;-78
2022/11/21 07:39:49;;;;;;;128.00;40.27;;;;;;;;;;4999393;28;20173;-78
2022/11/21 07:42:15;;;;;;;220.57;60.15;;;;;;;;;;4982149;28;20411;-78
2022/11/21 07:44:41;;;;;;;158.70;43.67;;;;;;;;;;4998903;28;20205;-78
2022/11/21 07:47:07;;;;;;;142.97;42.60;;;;;;;;;;4982870;28;20182;-78
2022/11/21 07:49:33;;;;;;;141.57;42.17;;;;;;;;;;4999209;28;20185;-78
2022/11/21 07:51:59;;;;;;;128.37;43.17;;;;;;;;;;4998899;28;20188;-78
2022/11/21 07:54:25;;;;;;;128.03;39.40;;;;;;;;;;4999068;28;20216;-78
2022/11/21 07:56:51;;;;;;;103.63;38.43;;;;;;;;;;4982739;28;20317;-78
2022/11/21 07:59:18;;;;;;;109.53;38.33;;;;;;;;;;4998789;28;20310;-78
2022/11/21 08:01:44;;;;;;;92.93;35.67;;;;;;;;;;4998507;28;20268;-78
2022/11/21 08:04:10;;;;;;;98.37;37.77;;;;;;;;;;4982967;28;20216;-78
2022/11/21 08:06:36;;;;;;;111.10;39.23;;;;;;;;;;4980885;28;20235;-78
2022/11/21 08:09:02;;;;;;;122.90;39.30;;;;;;;;;;4998943;28;20208;-78
2022/11/21 08:11:29;;;;;;;126.27;39.93;;;;;;;;;;5016004;28;20181;-76
2022/11/21 08:13:55;;;;;;;102.40;37.07;;;;;;;;;;4982297;28;20214;-76
2022/11/21 08:16:23;;;;;;;126.27;39.17;;;;;;;;;;4998624;28;20173;-76
2022/11/21 08:18:50;;;;;;;120.87;39.20;;;;;;;;;;4998344;28;20233;-76
2022/11/21 08:21:16;;;;;;;103.40;37.23;;;;;;;;;;4982396;28;20220;-77
2022/11/21 08:23:42;;;;;;;102.93;37.17;;;;;;;;;;4978543;28;20174;-76
2022/11/21 08:26:09;;;;;;;104.50;36.40;;;;;;;;;;4962666;28;20236;-77
2022/11/21 08:28:35;;;;;;;91.40;35.30;;;;;;;;;;4962803;28;20229;-84
2022/11/21 08:31:04;;;;;;;83.20;34.80;;;;;;;;;;4988654;28;20178;-84
2022/11/21 08:33:31;;;;;;;79.27;33.57;;;;;;;;;;4989529;28;20224;-84
2022/11/21 08:35:57;;;;;;;82.93;33.37;;;;;;;;;;4984119;28;20181;-77
2022/11/21 08:38:23;;;;;;;83.93;33.43;;;;;;;;;;5020043;28;20192;-76
2022/11/21 08:42:01;;;;;;;79.27;33.87;;;;;;;;;;4997752;28;20189;-77
2022/11/21 08:43:38;;;;;;;74.87;32.73;;;;;;;;;;5014862;28;20189;-76
2022/11/21 08:46:04;;;;;;;78.73;34.33;;;;;;;;;;4997728;28;20205;-76
2022/11/21 08:48:30;;;;;;;85.73;33.43;;;;;;;;;;4987067;28;20243;-76
2022/11/21 08:50:58;;;;;;;86.53;35.93;;;;;;;;;;4981801;28;20185;-76
2022/11/21 08:53:24;;;;;;;88.80;35.17;;;;;;;;;;4988871;28;20182;-76
2022/11/21 08:55:50;;;;;;;89.33;33.93;;;;;;;;;;4977203;28;20188;-76
2022/11/21 08:58:16;;;;;;;80.87;34.50;;;;;;;;;;4981973;28;20193;-76
2022/11/21 09:00:42;;;;;;;79.60;34.17;;;;;;;;;;5015170;28;20188;-76
2022/11/21 09:03:08;;;;;;;87.43;34.87;;;;;;;;;;4981894;28;20185;-85
2022/11/21 09:05:34;;;;;;;78.90;32.33;;;;;;;;;;4981822;28;20248;-85
2022/11/21 09:08:00;;;;;;;97.40;34.80;;;;;;;;;;4998289;28;20200;-84
2022/11/21 09:10:27;;;;;;;77.70;33.17;;;;;;;;;;4997990;28;20174;-84
2022/11/21 09:12:54;;;;;;;69.80;32.37;;;;;;;;;;5015111;28;20180;-85
2022/11/21 09:18:06;;;;;;;73.73;32.97;;;;;;;;;;4994781;28;20240;-84
2022/11/21 09:20:33;;;;;;;76.93;32.93;;;;;;;;;;4978279;28;20186;-84
2022/11/21 09:23:09;;;;;;;70.57;33.30;;;;;;;;;;4974683;28;20182;-85
2022/11/21 09:25:35;;;;;;;85.23;33.67;;;;;;;;;;4982953;28;20204;-85
2022/11/21 09:28:02;;;;;;;104.90;34.73;;;;;;;;;;4993994;28;20228;-85
2022/11/21 09:30:28;;;;;;;106.27;34.33;;;;;;;;;;4993504;28;20174;-84
2022/11/21 09:32:58;;;;;;;98.27;34.67;;;;;;;;;;4977850;28;20184;-85
2022/11/21 09:35:24;;;;;;;107.23;36.07;;;;;;;;;;4993936;28;20290;-76
2022/11/21 09:37:50;;;;;;;146.57;38.23;;;;;;;;;;4977883;28;20300;-76
2022/11/21 09:40:17;;;;;;;132.07;36.53;;;;;;;;;;4977650;28;20219;-76
2022/11/21 09:42:56;;;;;;;103.20;34.57;;;;;;;;;;4976983;28;20197;-77
2022/11/21 09:45:26;;;;;;;112.60;34.20;;;;;;;;;;4993819;28;20201;-77
2022/11/21 09:47:52;;;;;;;143.13;36.53;;;;;;;;;;4993967;28;20212;-77
2022/11/21 09:50:24;;;;;;;107.70;35.83;;;;;;;;;;4977931;28;20188;-77
2022/11/21 09:53:16;;;;;;;84.23;34.17;;;;;;;;;;4993924;28;20182;-85
2022/11/21 09:56:05;;;;;;;108.73;36.50;;;;;;;;;;4974293;28;20198;-84
2022/11/21 09:59:04;;;;;;;104.30;36.13;;;;;;;;;;4991836;28;20174;-85
2022/11/21 10:01:30;;;;;;;105.73;35.90;;;;;;;;;;4983309;28;20197;-85
2022/11/21 10:03:56;;;;;;;136.37;38.33;;;;;;;;;;4977698;28;20269;-79
2022/11/21 10:06:31;;;;;;;114.03;38.17;;;;;;;;;;4977551;28;20210;-79
2022/11/21 10:09:06;;;;;;;130.63;40.83;;;;;;;;;;4994893;28;20247;-85
2022/11/21 10:11:32;;;;;;;168.30;42.83;;;;;;;;;;4993471;28;20180;-83
2022/11/21 10:14:04;;;;;;;179.00;43.77;;;;;;;;;;4993945;28;20182;-85
2022/11/21 10:16:37;;;;;;;135.13;40.27;;;;;;;;;;4994771;28;20185;-84
2022/11/21 10:19:09;;;;;;;127.90;37.83;;;;;;;;;;4996856;28;20239;-85
2022/11/21 10:21:41;;;;;;;113.27;37.60;;;;;;;;;;5014415;28;20181;-85
2022/11/21 10:24:25;;;;;;;150.53;40.50;;;;;;;;;;4997277;28;20184;-84
2022/11/21 10:27:00;;;;;;;175.10;38.57;;;;;;;;;;5013097;28;20235;-79
2022/11/21 10:29:29;;;;;;;207.03;41.50;;;;;;;;;;5014220;28;20184;-79
2022/11/21 10:31:57;;;;;;;134.40;37.97;;;;;;;;;;4997278;28;20176;-79
2022/11/21 10:34:24;;;;;;;165.37;40.77;;;;;;;;;;5013891;28;20178;-79
2022/11/21 10:36:54;;;;;;;166.00;40.80;;;;;;;;;;4996682;28;20173;-79
2022/11/21 10:39:25;;;;;;;137.77;39.37;;;;;;;;;;5014094;28;20180;-79
2022/11/21 10:41:55;;;;;;;158.40;40.70;;;;;;;;;;4996631;28;20181;-79
2022/11/21 10:47:13;;;;;;;136.23;41.13;;;;;;;;;;5014122;28;20232;-79
2022/11/21 10:49:39;;;;;;;139.57;42.20;;;;;;;;;;4986090;28;20182;-79
2022/11/21 10:52:09;;;;;;;160.47;44.80;;;;;;;;;;5008615;28;20182;-78
2022/11/21 10:54:55;;;;;;;168.53;43.23;;;;;;;;;;4987621;28;20240;-78
2022/11/21 10:57:21;;;;;;;160.83;44.30;;;;;;;;;;5000067;28;20185;-78
2022/11/21 11:00:01;;;;;;;176.57;45.10;;;;;;;;;;5000732;28;20185;-85
2022/11/21 11:02:27;;;;;;;169.10;45.13;;;;;;;;;;5000085;28;20268;-83
2022/11/21 11:05:12;;;;;;;159.33;44.17;;;;;;;;;;5017538;28;20213;-85
2022/11/21 11:07:38;;;;;;;179.00;46.53;;;;;;;;;;4989411;28;20297;-84
2022/11/21 11:10:23;;;;;;;164.17;46.00;;;;;;;;;;4980995;28;20182;-85
2022/11/21 11:15:34;;;;;;;169.57;46.60;;;;;;;;;;4983487;28;20273;-78
2022/11/21 11:18:01;;;;;;;152.37;45.10;;;;;;;;;;4997189;28;20237;-78
2022/11/21 11:20:40;;;;;;;168.03;46.60;;;;;;;;;;4997624;28;20182;-78
2022/11/21 11:23:21;;;;;;;164.23;48.20;;;;;;;;;;4998003;28;20177;-78
2022/11/21 11:25:49;;;;;;;148.83;46.30;;;;;;;;;;4980125;28;20216;-78
2022/11/21 11:28:18;;;;;;;166.53;49.13;;;;;;;;;;4997411;28;20174;-78
2022/11/21 11:30:44;;;;;;;159.10;48.53;;;;;;;;;;4964583;28;20233;-78
2022/11/21 11:33:33;;;;;;;150.47;46.77;;;;;;;;;;4980736;28;20182;-78
2022/11/21 11:36:11;;;;;;;156.57;47.93;;;;;;;;;;4987063;28;20212;-78
2022/11/21 11:38:37;;;;;;;133.10;46.13;;;;;;;;;;5017456;28;20201;-78
2022/11/21 11:41:09;;;;;;;152.33;47.87;;;;;;;;;;4983422;28;20215;-78
2022/11/21 11:52:52;;;;;;;158.13;48.40;;;;;;;;;;5009534;28;20192;-80
2022/11/21 11:55:22;;;;;;;137.47;47.83;;;;;;;;;;4972197;28;20197;-80
2022/11/21 11:57:50;;;;;;;149.97;48.07;;;;;;;;;;4979375;28;20181;-79
2022/11/21 12:00:30;;;;;;;145.20;48.37;;;;;;;;;;4997008;28;20178;-80
2022/11/21 12:03:05;;;;;;;128.53;46.03;;;;;;;;;;4979407;28;20186;-80
2022/11/21 12:05:31;;;;;;;120.30;45.70;;;;;;;;;;4979140;28;20209;-80
2022/11/21 12:07:57;;;;;;;114.20;44.43;;;;;;;;;;4979511;28;20320;-80
2022/11/21 12:10:27;;;;;;;127.30;46.37;;;;;;;;;;4979582;28;20225;-80
2022/11/21 12:13:02;;;;;;;120.47;46.07;;;;;;;;;;4979372;28;20256;-80
2022/11/21 12:15:47;;;;;;;105.33;44.87;;;;;;;;;;5010725;28;20176;-80
2022/11/21 12:18:20;;;;;;;113.13;45.67;;;;;;;;;;5016173;28;20232;-80
2022/11/21 12:21:04;;;;;;;105.03;45.13;;;;;;;;;;4997638;28;20268;-79
2022/11/21 12:23:32;;;;;;;106.23;44.83;;;;;;;;;;4984854;28;20194;-76
2022/11/21 12:26:06;;;;;;;98.87;43.57;;;;;;;;;;4995185;28;20211;-77
2022/11/21 12:28:38;;;;;;;99.10;43.43;;;;;;;;;;4998550;28;20183;-77
2022/11/21 12:31:07;;;;;;;98.63;45.10;;;;;;;;;;5015866;28;20174;-77
2022/11/21 12:33:39;;;;;;;104.40;45.23;;;;;;;;;;5015931;28;20181;-76
2022/11/21 12:36:15;;;;;;;90.33;43.70;;;;;;;;;;5015949;28;20256;-77
2022/11/21 12:38:56;;;;;;;98.00;44.97;;;;;;;;;;4998837;28;20185;-86
2022/11/21 12:44:14;;;;;;;78.83;41.57;;;;;;;;;;4946983;28;20316;-85
2022/11/21 12:46:49;;;;;;;74.93;40.23;;;;;;;;;;4979333;28;20235;-86
2022/11/21 12:55:23;;;;;;;75.53;40.70;;;;;;;;;;4995945;28;20227;-79
2022/11/21 12:58:01;;;;;;;80.77;40.43;;;;;;;;;;4983790;28;20200;-79
2022/11/21 13:00:49;;;;;;;73.23;38.80;;;;;;;;;;5003621;28;20188;-79
2022/11/21 13:03:15;;;;;;;72.63;38.23;;;;;;;;;;4978352;28;20193;-79
2022/11/21 13:05:45;;;;;;;69.40;38.90;;;;;;;;;;4995935;28;20288;-79
2022/11/21 13:08:14;;;;;;;64.17;36.43;;;;;;;;;;4995633;28;20180;-79
2022/11/21 13:10:44;;;;;;;63.23;35.10;;;;;;;;;;4978390;28;20170;-79
2022/11/21 13:13:13;;;;;;;57.07;33.50;;;;;;;;;;4978364;28;20186;-79
2022/11/21 13:15:46;;;;;;;57.67;31.73;;;;;;;;;;4995470;28;20275;-79
2022/11/21 13:18:51;;;;;;;49.93;31.20;;;;;;;;;;4995415;28;20240;-79
2022/11/21 13:21:35;;;;;;;52.33;32.93;;;;;;;;;;4935747;29;20183;-79
2022/11/21 13:24:01;;;;;;;50.13;31.33;;;;;;;;;;4935757;29;20188;-79
2022/11/21 13:26:28;;;;;;;46.07;29.67;;;;;;;;;;4954766;28;20226;-79
2022/11/21 13:29:08;;;;;;;51.00;31.20;;;;;;;;;;4978352;28;20178;-86
2022/11/21 13:31:35;;;;;;;35.77;26.73;;;;;;;;;;4978031;28;20186;-86
2022/11/21 13:34:01;;;;;;;37.53;26.80;;;;;;;;;;4995217;28;20217;-86
2022/11/21 13:36:27;;;;;;;37.83;26.77;;;;;;;;;;4995393;28;20174;-86
2022/11/21 13:38:53;;;;;;;39.00;25.87;;;;;;;;;;5009531;28;20270;-86
2022/11/21 13:44:37;;;;;;;31.30;23.97;;;;;;;;;;4995102;28;20209;-80
2022/11/21 13:47:03;;;;;;;30.00;22.40;;;;;;;;;;4977794;28;20177;-80
2022/11/21 13:49:45;;;;;;;36.70;21.87;;;;;;;;;;4978201;28;20232;-80
2022/11/21 13:52:23;;;;;;;25.77;20.33;;;;;;;;;;4977956;28;20253;-86
2022/11/21 13:55:08;;;;;;;27.90;20.33;;;;;;;;;;4977906;28;20192;-86
2022/11/21 13:57:34;;;;;;;27.50;19.73;;;;;;;;;;4995044;28;20245;-86
2022/11/21 14:00:12;;;;;;;27.97;19.93;;;;;;;;;;4977579;28;20189;-86
2022/11/21 14:02:44;;;;;;;27.17;19.80;;;;;;;;;;4977641;28;20268;-79
2022/11/21 14:05:29;;;;;;;27.80;19.50;;;;;;;;;;4977477;28;20218;-79
2022/11/21 14:08:10;;;;;;;26.10;18.70;;;;;;;;;;5002568;28;20188;-79
2022/11/21 14:10:36;;;;;;;26.60;19.27;;;;;;;;;;4996995;28;20200;-79
2022/11/21 14:13:02;;;;;;;30.30;17.87;;;;;;;;;;4997362;28;20177;-79
2022/11/21 14:15:34;;;;;;;23.93;17.80;;;;;;;;;;5014445;28;20181;-79
2022/11/21 14:18:00;;;;;;;25.23;18.27;;;;;;;;;;4996847;28;20264;-77
2022/11/21 14:20:28;;;;;;;25.83;18.80;;;;;;;;;;4996971;28;20177;-77
2022/11/21 14:22:59;;;;;;;28.03;18.20;;;;;;;;;;4997087;28;20177;-77
2022/11/21 14:25:32;;;;;;;29.33;18.27;;;;;;;;;;4998507;28;20206;-79
2022/11/21 14:27:58;;;;;;;28.50;18.30;;;;;;;;;;4994576;28;20174;-79
2022/11/21 14:30:29;;;;;;;24.93;18.13;;;;;;;;;;4980402;28;20193;-79
2022/11/21 14:32:54;;;;;;;24.17;16.63;;;;;;;;;;4981580;28;20182;-79
2022/11/21 14:35:22;;;;;;;26.83;16.50;;;;;;;;;;4998586;28;20251;-79
2022/11/21 14:37:49;;;;;;;23.07;17.03;;;;;;;;;;4981085;28;20188;-79
2022/11/21 14:40:22;;;;;;;25.30;16.70;;;;;;;;;;4981030;28;20185;-85
2022/11/21 14:42:48;;;;;;;26.17;16.73;;;;;;;;;;4995936;28;20220;-86
2022/11/21 14:45:19;;;;;;;21.87;16.23;;;;;;;;;;4997663;28;20237;-86
2022/11/21 14:47:46;;;;;;;22.40;15.63;;;;;;;;;;4997261;28;20174;-86
2022/11/21 14:50:41;;;;;;;21.23;16.00;;;;;;;;;;4998484;28;20182;-86
2022/11/21 14:53:11;;;;;;;25.63;15.80;;;;;;;;;;4982024;28;20182;-77
2022/11/21 14:55:38;;;;;;;26.53;15.93;;;;;;;;;;4997556;28;20205;-77
2022/11/21 14:58:05;;;;;;;20.83;15.50;;;;;;;;;;4994096;28;20186;-77
2022/11/21 15:00:31;;;;;;;25.60;15.93;;;;;;;;;;4981004;28;20280;-77
2022/11/21 15:02:58;;;;;;;25.07;15.90;;;;;;;;;;4981274;28;20281;-77
2022/11/21 15:05:34;;;;;;;24.07;15.97;;;;;;;;;;4980703;28;20210;-77
2022/11/21 15:08:00;;;;;;;24.57;16.00;;;;;;;;;;4998098;28;20193;-86